createdAt,value
2022-12-26T00:02:08.780Z,5.08
2022-12-26T00:07:12.662Z,5.02
2022-12-26T00:12:17.236Z,4.99
2022-12-26T00:17:24.885Z,4.98
2022-12-26T00:22:30.216Z,5.01
2022-12-26T00:27:35.061Z,5.02
2022-12-26T00:32:44.922Z,5.03
2022-12-26T00:37:55.331Z,5.03
2022-12-26T00:43:02.270Z,5.05
2022-12-26T00:48:09.339Z,5.10
2022-12-26T00:53:17.496Z,5.13
2022-12-26T00:58:24.808Z,5.14
2022-12-26T01:03:29.241Z,5.10
2022-12-26T01:08:34.281Z,5.13
2022-12-26T01:13:41.543Z,5.20
2022-12-26T01:18:46.733Z,5.23
2022-12-26T01:23:52.009Z,5.27
2022-12-26T01:28:56.206Z,5.24
2022-12-26T01:34:01.172Z,5.24
2022-12-26T01:39:06.186Z,5.22
2022-12-26T01:44:47.470Z,5.25
2022-12-26T01:49:55.100Z,5.20
2022-12-26T01:55:00.743Z,5.17
2022-12-26T02:00:05.938Z,5.14
2022-12-26T02:05:29.782Z,5.13
2022-12-26T02:10:43.603Z,5.08
2022-12-26T02:15:49.752Z,5.05
2022-12-26T02:20:58.228Z,5.05
2022-12-26T02:26:36.770Z,5.08
2022-12-26T02:32:00.233Z,5.08
2022-12-26T02:37:39.890Z,5.05
2022-12-26T02:42:52.641Z,5.04
2022-12-26T02:48:12.969Z,5.03
2022-12-26T02:54:02.349Z,5.03
2022-12-26T02:59:56.288Z,5.07
2022-12-26T03:05:18.306Z,5.07
2022-12-26T03:10:52.265Z,5.06
2022-12-26T03:16:21.175Z,5.09
2022-12-26T03:21:30.318Z,5.08
2022-12-26T03:26:41.023Z,5.12
2022-12-26T03:31:44.805Z,5.17
2022-12-26T03:37:14.844Z,5.22
2022-12-26T03:43:02.037Z,5.26
2022-12-26T03:48:51.476Z,5.26
2022-12-26T03:54:28.359Z,5.27
2022-12-26T04:00:18.444Z,5.32
2022-12-26T04:05:41.566Z,5.32
2022-12-26T04:11:09.152Z,5.33
2022-12-26T04:16:38.559Z,5.36
2022-12-26T04:22:07.567Z,5.42
2022-12-26T04:27:33.916Z,5.45
2022-12-26T04:33:04.617Z,5.47
2022-12-26T04:38:29.176Z,5.49
2022-12-26T04:43:54.459Z,5.50
2022-12-26T04:49:20.336Z,5.56
2022-12-26T04:54:24.584Z,5.57
2022-12-26T04:59:29.390Z,5.55
2022-12-26T05:04:53.570Z,5.56
2022-12-26T05:09:58.579Z,5.57
2022-12-26T05:15:03.563Z,5.60
2022-12-26T05:20:27.247Z,5.63
2022-12-26T05:25:58.535Z,5.66
2022-12-26T05:31:03.756Z,5.71
2022-12-26T05:36:09.754Z,5.70
2022-12-26T05:41:14.993Z,5.82
2022-12-26T05:46:21.014Z,5.90
2022-12-26T05:51:28.243Z,6.02
2022-12-26T05:56:33.471Z,6.08
2022-12-26T06:01:39.261Z,6.17
2022-12-26T06:06:42.982Z,6.27
2022-12-26T06:11:49.114Z,6.32
2022-12-26T06:16:54.950Z,6.42
2022-12-26T06:21:59.528Z,6.53
2022-12-26T06:27:08.443Z,6.61
2022-12-26T06:32:12.991Z,6.73
2022-12-26T06:37:17.726Z,6.80
2022-12-26T06:42:22.701Z,6.84
2022-12-26T06:47:26.419Z,6.91
2022-12-26T06:52:30.383Z,6.95
2022-12-26T06:57:34.409Z,6.98
2022-12-26T07:02:38.233Z,7.07
2022-12-26T07:07:43.111Z,7.10
2022-12-26T07:12:49.111Z,7.16
2022-12-26T07:17:54.257Z,7.22
2022-12-26T07:23:00.138Z,7.23
2022-12-26T07:28:06.288Z,7.30
2022-12-26T07:33:11.287Z,7.35
2022-12-26T07:38:17.286Z,7.38
2022-12-26T07:43:23.487Z,7.46
2022-12-26T07:48:32.384Z,7.55
2022-12-26T07:53:37.297Z,7.63
2022-12-26T07:58:43.751Z,7.79
2022-12-26T08:03:49.789Z,7.89
2022-12-26T08:08:53.356Z,7.98
2022-12-26T08:13:57.970Z,8.18
2022-12-26T08:19:04.297Z,8.25
2022-12-26T08:24:07.983Z,8.28
2022-12-26T08:29:11.790Z,8.37
2022-12-26T08:34:15.467Z,8.40
2022-12-26T08:39:19.367Z,8.45
2022-12-26T08:44:27.736Z,8.50
2022-12-26T08:49:32.285Z,8.48
2022-12-26T08:54:36.336Z,8.51
2022-12-26T08:59:40.444Z,8.56
2022-12-26T09:04:45.535Z,8.55
2022-12-26T09:09:49.266Z,8.57
2022-12-26T09:14:54.021Z,8.65
2022-12-26T09:19:59.712Z,8.69
2022-12-26T09:25:06.694Z,8.72
2022-12-26T09:30:12.011Z,8.81
2022-12-26T09:35:17.587Z,8.81
2022-12-26T09:40:29.847Z,8.91
2022-12-26T09:46:00.558Z,9.03
2022-12-26T09:51:06.675Z,9.10
2022-12-26T09:56:36.952Z,9.15
2022-12-26T10:01:45.684Z,9.21
2022-12-26T10:07:14.979Z,9.35
2022-12-26T10:12:19.828Z,9.53
2022-12-26T10:17:38.516Z,9.74
2022-12-26T10:22:49.483Z,9.99
2022-12-26T10:27:59.530Z,10.11
2022-12-26T10:33:13.768Z,10.14
2022-12-26T10:38:42.220Z,10.16
2022-12-26T10:43:46.857Z,10.15
2022-12-26T10:48:54.143Z,10.18
2022-12-26T10:54:00.632Z,10.14
2022-12-26T10:59:06.747Z,10.13
2022-12-26T11:10:02.943Z,10.28
2022-12-26T11:15:40.969Z,10.36
2022-12-26T11:20:47.989Z,10.37
2022-12-26T11:25:58.485Z,10.49
2022-12-26T11:31:07.339Z,10.61
2022-12-26T11:36:33.890Z,10.66
2022-12-26T11:41:42.024Z,10.75
2022-12-26T11:47:15.636Z,10.84
2022-12-26T11:52:38.250Z,10.88
2022-12-26T11:57:42.669Z,10.97
2022-12-26T12:02:49.503Z,10.97
2022-12-26T12:08:05.759Z,10.89
2022-12-26T12:13:26.987Z,10.91
2022-12-26T12:18:56.956Z,11.01
2022-12-26T12:24:21.102Z,11.00
2022-12-26T12:29:50.573Z,11.06
2022-12-26T12:35:36.523Z,11.11
2022-12-26T12:41:20.119Z,11.15
2022-12-26T12:46:43.768Z,11.18
2022-12-26T12:51:57.074Z,11.22
2022-12-26T12:57:22.462Z,11.26
2022-12-26T13:02:41.687Z,11.23
2022-12-26T13:07:57.404Z,11.24
2022-12-26T13:13:22.598Z,11.24
2022-12-26T13:18:35.626Z,11.22
2022-12-26T13:24:24.147Z,11.19
2022-12-26T13:29:40.598Z,11.11
2022-12-26T13:34:46.581Z,11.03
2022-12-26T13:39:52.932Z,10.97
2022-12-26T13:45:23.802Z,10.94
2022-12-26T13:50:54.931Z,10.89
2022-12-26T13:56:04.537Z,10.81
2022-12-26T14:01:30.941Z,10.80
2022-12-26T14:07:01.887Z,10.74
2022-12-26T14:12:09.601Z,10.67
2022-12-26T14:17:31.535Z,10.66
2022-12-26T14:22:56.144Z,10.64
2022-12-26T14:28:38.089Z,10.62
2022-12-26T14:33:48.715Z,10.59
2022-12-26T14:38:53.228Z,10.57
2022-12-26T14:43:58.262Z,10.54
2022-12-26T14:49:35.782Z,10.55
2022-12-26T14:54:51.132Z,10.52
2022-12-26T15:00:30.321Z,10.45
2022-12-26T15:05:40.705Z,10.37
2022-12-26T15:10:52.097Z,10.36
2022-12-26T15:16:08.334Z,10.31
2022-12-26T15:21:30.118Z,10.29
2022-12-26T15:27:16.386Z,10.30
2022-12-26T15:32:38.419Z,10.22
2022-12-26T15:37:55.161Z,10.15
2022-12-26T15:43:18.844Z,10.04
2022-12-26T15:48:41.642Z,9.95
2022-12-26T15:54:04.985Z,9.94
2022-12-26T15:59:47.627Z,9.92
2022-12-26T16:05:15.170Z,9.96
2022-12-26T16:10:26.003Z,9.93
2022-12-26T16:15:31.543Z,9.90
2022-12-26T16:20:53.917Z,9.94
2022-12-26T16:26:01.151Z,9.92
2022-12-26T16:31:05.300Z,9.93
2022-12-26T16:36:11.731Z,9.95
2022-12-26T16:41:23.627Z,9.92
2022-12-26T16:46:31.163Z,9.87
2022-12-26T16:51:44.959Z,9.82
2022-12-26T16:56:53.400Z,9.75
2022-12-26T17:02:00.593Z,9.66
2022-12-26T17:07:17.656Z,9.66
2022-12-26T17:12:24.284Z,9.61
2022-12-26T17:17:33.726Z,9.58
2022-12-26T17:22:38.554Z,9.61
2022-12-26T17:27:44.250Z,9.58
2022-12-26T17:32:50.427Z,9.53
2022-12-26T17:38:04.787Z,9.49
2022-12-26T17:43:11.149Z,9.43
2022-12-26T17:48:15.488Z,9.43
2022-12-26T17:53:32.072Z,9.45
2022-12-26T17:58:37.479Z,9.41
2022-12-26T18:03:43.334Z,9.34
2022-12-26T18:08:48.138Z,9.33
2022-12-26T18:13:52.587Z,9.26
2022-12-26T18:19:02.139Z,9.24
2022-12-26T18:24:09.357Z,9.25
2022-12-26T18:29:13.231Z,9.25
2022-12-26T18:34:17.308Z,9.24
2022-12-26T18:39:22.796Z,9.25
2022-12-26T18:44:26.832Z,9.23
2022-12-26T18:49:32.628Z,9.17
2022-12-26T18:54:37.857Z,9.17
2022-12-26T18:59:43.418Z,9.14
2022-12-26T19:04:49.607Z,9.10
2022-12-26T19:09:57.932Z,9.09
2022-12-26T19:15:06.524Z,9.02
2022-12-26T19:20:26.380Z,8.98
2022-12-26T19:25:32.486Z,9.02
2022-12-26T19:30:45.269Z,8.98
2022-12-26T19:35:59.281Z,8.90
2022-12-26T19:41:13.893Z,8.88
2022-12-26T19:46:21.158Z,8.89
2022-12-26T19:51:26.360Z,8.89
2022-12-26T19:56:33.094Z,8.95
2022-12-26T20:01:37.895Z,8.94
2022-12-26T20:06:41.765Z,8.91
2022-12-26T20:11:50.308Z,8.90
2022-12-26T20:17:07.235Z,8.88
2022-12-26T20:22:12.843Z,8.89
2022-12-26T20:27:18.482Z,8.95
2022-12-26T20:32:22.715Z,8.94
2022-12-26T20:37:28.998Z,8.95
2022-12-26T20:42:32.951Z,9.02
2022-12-26T20:47:36.575Z,8.98
2022-12-26T20:52:40.906Z,8.95
2022-12-26T20:57:45.388Z,9.00
2022-12-26T21:02:49.674Z,9.01
2022-12-26T21:07:53.472Z,9.01
2022-12-26T21:12:57.837Z,9.04
2022-12-26T21:18:01.549Z,9.00
2022-12-26T21:23:05.275Z,8.96
2022-12-26T21:28:09.629Z,8.96
2022-12-26T21:33:14.016Z,8.91
2022-12-26T21:38:18.241Z,8.84
2022-12-26T21:43:23.156Z,8.84
2022-12-26T21:48:28.137Z,8.79
2022-12-26T21:53:32.791Z,8.76
2022-12-26T21:58:56.028Z,8.76
2022-12-26T22:04:19.040Z,8.72
2022-12-26T22:09:24.623Z,8.70
2022-12-26T22:14:29.036Z,8.74
2022-12-26T22:19:35.720Z,8.73
2022-12-26T22:24:40.283Z,8.71
2022-12-26T22:29:45.898Z,8.70
2022-12-26T22:34:53.876Z,8.65
2022-12-26T22:39:58.159Z,8.60
2022-12-26T22:45:02.160Z,8.57
2022-12-26T22:50:07.620Z,8.53
2022-12-26T22:55:13.037Z,8.50
2022-12-26T23:00:17.559Z,8.51
2022-12-26T23:05:21.710Z,8.47
2022-12-26T23:10:26.087Z,8.41
2022-12-26T23:15:30.396Z,8.42
2022-12-26T23:20:56.488Z,8.37
2022-12-26T23:26:02.046Z,8.31
2022-12-26T23:31:07.913Z,8.27
2022-12-26T23:36:13.227Z,8.20
2022-12-26T23:41:18.169Z,8.18
2022-12-26T23:46:24.332Z,8.16
2022-12-26T23:51:29.466Z,8.13
2022-12-26T23:56:34.406Z,8.11
